sensor_id;sensor_type;location;lat;lon;timestamp;temperature;humidity
56268;DHT22;42175;46.930;9.532;2023-04-19T00:00:28;23.00;39.30
56268;DHT22;42175;46.930;9.532;2023-04-19T00:02:53;23.00;39.20
56268;DHT22;42175;46.930;9.532;2023-04-19T00:05:20;23.00;39.30
56268;DHT22;42175;46.930;9.532;2023-04-19T00:07:48;23.00;39.30
56268;DHT22;42175;46.930;9.532;2023-04-19T00:10:14;23.00;39.30
56268;DHT22;42175;46.930;9.532;2023-04-19T00:12:40;23.00;39.30
56268;DHT22;42175;46.930;9.532;2023-04-19T00:15:06;23.00;39.30
56268;DHT22;42175;46.930;9.532;2023-04-19T00:17:33;23.00;39.30
56268;DHT22;42175;46.930;9.532;2023-04-19T00:19:59;23.00;39.30
56268;DHT22;42175;46.930;9.532;2023-04-19T00:22:24;23.00;39.30
56268;DHT22;42175;46.930;9.532;2023-04-19T00:24:51;23.00;39.30
56268;DHT22;42175;46.930;9.532;2023-04-19T00:27:17;23.00;39.30
56268;DHT22;42175;46.930;9.532;2023-04-19T00:29:43;23.00;39.30
56268;DHT22;42175;46.930;9.532;2023-04-19T00:32:08;23.00;39.30
56268;DHT22;42175;46.930;9.532;2023-04-19T00:34:35;23.00;39.30
56268;DHT22;42175;46.930;9.532;2023-04-19T00:37:01;22.90;39.20
56268;DHT22;42175;46.930;9.532;2023-04-19T00:39:29;23.00;39.30
56268;DHT22;42175;46.930;9.532;2023-04-19T00:41:55;23.00;39.20
56268;DHT22;42175;46.930;9.532;2023-04-19T00:44:22;23.00;39.20
56268;DHT22;42175;46.930;9.532;2023-04-19T00:46:48;23.00;39.90
56268;DHT22;42175;46.930;9.532;2023-04-19T00:49:15;23.00;39.20
56268;DHT22;42175;46.930;9.532;2023-04-19T00:51:41;22.90;39.20
56268;DHT22;42175;46.930;9.532;2023-04-19T00:54:07;22.90;39.20
56268;DHT22;42175;46.930;9.532;2023-04-19T00:56:34;23.00;39.20
56268;DHT22;42175;46.930;9.532;2023-04-19T00:59:00;22.90;39.10
56268;DHT22;42175;46.930;9.532;2023-04-19T01:01:26;22.90;39.10
56268;DHT22;42175;46.930;9.532;2023-04-19T01:03:53;22.90;39.70
56268;DHT22;42175;46.930;9.532;2023-04-19T01:06:19;22.90;39.20
56268;DHT22;42175;46.930;9.532;2023-04-19T01:08:45;23.00;39.50
56268;DHT22;42175;46.930;9.532;2023-04-19T01:11:11;22.90;39.20
56268;DHT22;42175;46.930;9.532;2023-04-19T01:13:37;22.90;39.20
56268;DHT22;42175;46.930;9.532;2023-04-19T01:16:03;22.90;39.20
56268;DHT22;42175;46.930;9.532;2023-04-19T01:18:28;22.90;39.20
56268;DHT22;42175;46.930;9.532;2023-04-19T01:21:00;22.90;39.20
56268;DHT22;42175;46.930;9.532;2023-04-19T01:23:25;22.90;39.20
56268;DHT22;42175;46.930;9.532;2023-04-19T01:25:51;22.90;39.20
56268;DHT22;42175;46.930;9.532;2023-04-19T01:28:17;22.90;39.20
56268;DHT22;42175;46.930;9.532;2023-04-19T01:30:42;22.90;39.20
56268;DHT22;42175;46.930;9.532;2023-04-19T01:33:08;22.90;39.20
56268;DHT22;42175;46.930;9.532;2023-04-19T01:35:34;22.90;39.20
56268;DHT22;42175;46.930;9.532;2023-04-19T01:37:59;22.90;39.20
56268;DHT22;42175;46.930;9.532;2023-04-19T01:40:26;22.90;39.20
56268;DHT22;42175;46.930;9.532;2023-04-19T01:42:52;22.90;39.30
56268;DHT22;42175;46.930;9.532;2023-04-19T01:45:18;22.90;39.30
56268;DHT22;42175;46.930;9.532;2023-04-19T01:47:44;22.90;39.30
56268;DHT22;42175;46.930;9.532;2023-04-19T01:50:09;22.90;39.30
56268;DHT22;42175;46.930;9.532;2023-04-19T01:52:35;22.90;39.30
56268;DHT22;42175;46.930;9.532;2023-04-19T01:55:01;22.90;39.30
56268;DHT22;42175;46.930;9.532;2023-04-19T01:57:26;22.90;39.20
56268;DHT22;42175;46.930;9.532;2023-04-19T01:59:52;22.90;39.30
56268;DHT22;42175;46.930;9.532;2023-04-19T02:02:18;22.90;39.30
56268;DHT22;42175;46.930;9.532;2023-04-19T02:04:44;22.90;39.30
56268;DHT22;42175;46.930;9.532;2023-04-19T02:07:10;22.90;39.20
56268;DHT22;42175;46.930;9.532;2023-04-19T02:09:36;22.90;39.30
56268;DHT22;42175;46.930;9.532;2023-04-19T02:12:02;22.90;39.30
56268;DHT22;42175;46.930;9.532;2023-04-19T02:14:28;22.90;39.40
56268;DHT22;42175;46.930;9.532;2023-04-19T02:16:54;22.90;39.40
56268;DHT22;42175;46.930;9.532;2023-04-19T02:19:20;22.90;39.40
56268;DHT22;42175;46.930;9.532;2023-04-19T02:21:45;22.90;39.30
56268;DHT22;42175;46.930;9.532;2023-04-19T02:24:11;22.90;39.30
56268;DHT22;42175;46.930;9.532;2023-04-19T02:26:38;22.90;39.30
56268;DHT22;42175;46.930;9.532;2023-04-19T02:29:04;22.90;39.30
56268;DHT22;42175;46.930;9.532;2023-04-19T02:31:30;22.90;39.20
56268;DHT22;42175;46.930;9.532;2023-04-19T02:33:55;22.90;39.20
56268;DHT22;42175;46.930;9.532;2023-04-19T02:36:21;22.90;39.20
56268;DHT22;42175;46.930;9.532;2023-04-19T02:38:47;22.90;39.20
56268;DHT22;42175;46.930;9.532;2023-04-19T02:41:12;22.90;39.90
56268;DHT22;42175;46.930;9.532;2023-04-19T02:43:38;22.90;39.30
56268;DHT22;42175;46.930;9.532;2023-04-19T02:46:04;22.90;39.30
56268;DHT22;42175;46.930;9.532;2023-04-19T02:48:29;22.90;39.30
56268;DHT22;42175;46.930;9.532;2023-04-19T02:50:55;22.90;39.20
56268;DHT22;42175;46.930;9.532;2023-04-19T02:53:21;22.90;39.30
56268;DHT22;42175;46.930;9.532;2023-04-19T02:55:46;22.90;39.30
56268;DHT22;42175;46.930;9.532;2023-04-19T02:58:12;22.90;39.30
56268;DHT22;42175;46.930;9.532;2023-04-19T03:00:38;22.90;39.30
56268;DHT22;42175;46.930;9.532;2023-04-19T03:03:04;22.90;39.30
56268;DHT22;42175;46.930;9.532;2023-04-19T03:05:29;22.90;39.30
56268;DHT22;42175;46.930;9.532;2023-04-19T03:07:55;22.80;39.30
56268;DHT22;42175;46.930;9.532;2023-04-19T03:10:21;22.80;39.30
56268;DHT22;42175;46.930;9.532;2023-04-19T03:12:46;22.90;39.30
56268;DHT22;42175;46.930;9.532;2023-04-19T03:15:12;22.90;39.30
56268;DHT22;42175;46.930;9.532;2023-04-19T03:17:38;22.90;39.30
56268;DHT22;42175;46.930;9.532;2023-04-19T03:20:04;22.90;39.30
56268;DHT22;42175;46.930;9.532;2023-04-19T03:22:33;22.90;39.40
56268;DHT22;42175;46.930;9.532;2023-04-19T03:24:59;22.90;39.40
56268;DHT22;42175;46.930;9.532;2023-04-19T03:27:25;22.90;39.40
56268;DHT22;42175;46.930;9.532;2023-04-19T03:29:50;22.80;39.30
56268;DHT22;42175;46.930;9.532;2023-04-19T03:32:17;22.80;39.30
56268;DHT22;42175;46.930;9.532;2023-04-19T03:34:42;22.80;39.30
56268;DHT22;42175;46.930;9.532;2023-04-19T03:37:08;22.90;39.30
56268;DHT22;42175;46.930;9.532;2023-04-19T03:39:34;22.90;39.30
56268;DHT22;42175;46.930;9.532;2023-04-19T03:41:59;22.90;39.30
56268;DHT22;42175;46.930;9.532;2023-04-19T03:44:26;22.90;39.30
56268;DHT22;42175;46.930;9.532;2023-04-19T03:46:51;22.90;39.30
56268;DHT22;42175;46.930;9.532;2023-04-19T03:49:18;22.80;39.30
56268;DHT22;42175;46.930;9.532;2023-04-19T03:51:43;22.90;39.30
56268;DHT22;42175;46.930;9.532;2023-04-19T03:54:11;22.90;39.30
56268;DHT22;42175;46.930;9.532;2023-04-19T03:56:36;22.90;39.30
56268;DHT22;42175;46.930;9.532;2023-04-19T03:59:02;22.90;39.30
56268;DHT22;42175;46.930;9.532;2023-04-19T04:01:28;22.90;39.30
56268;DHT22;42175;46.930;9.532;2023-04-19T04:03:53;22.80;39.30
56268;DHT22;42175;46.930;9.532;2023-04-19T04:06:19;22.80;39.20
56268;DHT22;42175;46.930;9.532;2023-04-19T04:08:44;22.90;39.30
56268;DHT22;42175;46.930;9.532;2023-04-19T04:11:10;22.90;39.30
56268;DHT22;42175;46.930;9.532;2023-04-19T04:13:36;22.80;39.20
56268;DHT22;42175;46.930;9.532;2023-04-19T04:16:02;22.90;39.30
56268;DHT22;42175;46.930;9.532;2023-04-19T04:18:27;22.80;39.30
56268;DHT22;42175;46.930;9.532;2023-04-19T04:20:53;22.80;39.30
56268;DHT22;42175;46.930;9.532;2023-04-19T04:23:19;22.90;39.30
56268;DHT22;42175;46.930;9.532;2023-04-19T04:25:46;22.80;39.20
56268;DHT22;42175;46.930;9.532;2023-04-19T04:28:12;22.80;39.30
56268;DHT22;42175;46.930;9.532;2023-04-19T04:30:38;22.80;39.20
56268;DHT22;42175;46.930;9.532;2023-04-19T04:33:05;22.80;39.30
56268;DHT22;42175;46.930;9.532;2023-04-19T04:35:31;22.80;39.30
56268;DHT22;42175;46.930;9.532;2023-04-19T04:37:56;22.90;39.30
56268;DHT22;42175;46.930;9.532;2023-04-19T04:40:23;22.90;39.20
56268;DHT22;42175;46.930;9.532;2023-04-19T04:42:49;22.80;39.20
56268;DHT22;42175;46.930;9.532;2023-04-19T04:45:17;22.90;39.20
56268;DHT22;42175;46.930;9.532;2023-04-19T04:47:43;22.80;39.20
56268;DHT22;42175;46.930;9.532;2023-04-19T04:50:10;22.90;39.30
56268;DHT22;42175;46.930;9.532;2023-04-19T04:52:36;22.80;39.20
56268;DHT22;42175;46.930;9.532;2023-04-19T04:55:02;22.90;39.30
56268;DHT22;42175;46.930;9.532;2023-04-19T04:57:27;22.80;39.30
56268;DHT22;42175;46.930;9.532;2023-04-19T04:59:53;22.90;39.30
56268;DHT22;42175;46.930;9.532;2023-04-19T05:02:20;22.80;39.30
56268;DHT22;42175;46.930;9.532;2023-04-19T05:04:48;22.80;39.30
56268;DHT22;42175;46.930;9.532;2023-04-19T05:07:14;22.80;39.30
56268;DHT22;42175;46.930;9.532;2023-04-19T05:09:39;22.80;39.30
56268;DHT22;42175;46.930;9.532;2023-04-19T05:12:05;22.80;39.30
56268;DHT22;42175;46.930;9.532;2023-04-19T05:14:31;22.60;36.80
56268;DHT22;42175;46.930;9.532;2023-04-19T05:16:56;22.00;37.30
56268;DHT22;42175;46.930;9.532;2023-04-19T05:19:22;21.50;37.90
56268;DHT22;42175;46.930;9.532;2023-04-19T05:21:48;21.30;38.40
56268;DHT22;42175;46.930;9.532;2023-04-19T05:24:14;21.00;38.60
56268;DHT22;42175;46.930;9.532;2023-04-19T05:26:41;20.80;39.00
56268;DHT22;42175;46.930;9.532;2023-04-19T05:29:07;20.60;39.20
56268;DHT22;42175;46.930;9.532;2023-04-19T05:31:32;20.40;39.50
56268;DHT22;42175;46.930;9.532;2023-04-19T05:33:58;20.30;39.30
56268;DHT22;42175;46.930;9.532;2023-04-19T05:36:23;20.40;39.50
56268;DHT22;42175;46.930;9.532;2023-04-19T05:38:49;20.60;39.50
56268;DHT22;42175;46.930;9.532;2023-04-19T05:41:15;20.90;39.50
56268;DHT22;42175;46.930;9.532;2023-04-19T05:43:40;21.10;39.40
56268;DHT22;42175;46.930;9.532;2023-04-19T05:46:06;21.20;39.40
56268;DHT22;42175;46.930;9.532;2023-04-19T05:48:31;21.20;39.40
56268;DHT22;42175;46.930;9.532;2023-04-19T05:50:57;21.30;39.30
56268;DHT22;42175;46.930;9.532;2023-04-19T05:53:24;21.30;39.40
56268;DHT22;42175;46.930;9.532;2023-04-19T05:55:49;21.40;39.30
56268;DHT22;42175;46.930;9.532;2023-04-19T05:58:17;21.50;39.30
56268;DHT22;42175;46.930;9.532;2023-04-19T06:00:43;21.60;39.30
56268;DHT22;42175;46.930;9.532;2023-04-19T06:03:09;21.60;39.30
56268;DHT22;42175;46.930;9.532;2023-04-19T06:05:36;21.70;39.30
56268;DHT22;42175;46.930;9.532;2023-04-19T06:08:02;21.70;39.30
56268;DHT22;42175;46.930;9.532;2023-04-19T06:10:29;21.70;39.30
56268;DHT22;42175;46.930;9.532;2023-04-19T06:12:54;21.80;39.40
56268;DHT22;42175;46.930;9.532;2023-04-19T06:15:20;21.80;38.70
56268;DHT22;42175;46.930;9.532;2023-04-19T06:17:47;21.60;37.80
56268;DHT22;42175;46.930;9.532;2023-04-19T06:20:12;21.10;37.90
56268;DHT22;42175;46.930;9.532;2023-04-19T06:22:45;20.80;38.30
56268;DHT22;42175;46.930;9.532;2023-04-19T06:25:10;20.60;38.60
56268;DHT22;42175;46.930;9.532;2023-04-19T06:27:36;20.50;38.80
56268;DHT22;42175;46.930;9.532;2023-04-19T06:30:03;20.30;39.10
56268;DHT22;42175;46.930;9.532;2023-04-19T06:32:28;20.20;39.50
56268;DHT22;42175;46.930;9.532;2023-04-19T06:34:54;20.00;39.70
56268;DHT22;42175;46.930;9.532;2023-04-19T06:37:20;20.00;39.80
56268;DHT22;42175;46.930;9.532;2023-04-19T06:39:45;20.00;40.10
56268;DHT22;42175;46.930;9.532;2023-04-19T06:42:11;19.90;40.90
56268;DHT22;42175;46.930;9.532;2023-04-19T06:44:37;19.60;40.60
56268;DHT22;42175;46.930;9.532;2023-04-19T06:47:02;19.40;40.70
56268;DHT22;42175;46.930;9.532;2023-04-19T06:49:28;19.40;41.30
56268;DHT22;42175;46.930;9.532;2023-04-19T06:51:54;19.30;41.30
56268;DHT22;42175;46.930;9.532;2023-04-19T06:54:19;19.40;41.60
56268;DHT22;42175;46.930;9.532;2023-04-19T06:56:46;19.50;41.80
56268;DHT22;42175;46.930;9.532;2023-04-19T06:59:14;19.50;41.80
56268;DHT22;42175;46.930;9.532;2023-04-19T07:01:42;19.50;41.60
56268;DHT22;42175;46.930;9.532;2023-04-19T07:04:08;19.50;41.80
56268;DHT22;42175;46.930;9.532;2023-04-19T07:06:35;19.50;42.30
56268;DHT22;42175;46.930;9.532;2023-04-19T07:09:01;19.50;41.50
56268;DHT22;42175;46.930;9.532;2023-04-19T07:11:28;19.40;41.40
56268;DHT22;42175;46.930;9.532;2023-04-19T07:13:54;19.30;41.80
56268;DHT22;42175;46.930;9.532;2023-04-19T07:16:20;19.30;41.80
56268;DHT22;42175;46.930;9.532;2023-04-19T07:18:46;19.20;41.90
56268;DHT22;42175;46.930;9.532;2023-04-19T07:21:11;19.10;42.40
56268;DHT22;42175;46.930;9.532;2023-04-19T07:23:37;19.00;42.50
56268;DHT22;42175;46.930;9.532;2023-04-19T07:26:03;19.10;42.40
56268;DHT22;42175;46.930;9.532;2023-04-19T07:28:28;19.20;42.40
56268;DHT22;42175;46.930;9.532;2023-04-19T07:30:54;19.60;41.80
56268;DHT22;42175;46.930;9.532;2023-04-19T07:33:21;19.80;41.30
56268;DHT22;42175;46.930;9.532;2023-04-19T07:35:47;20.10;41.10
56268;DHT22;42175;46.930;9.532;2023-04-19T07:38:13;20.20;40.90
56268;DHT22;42175;46.930;9.532;2023-04-19T07:40:38;20.40;40.70
56268;DHT22;42175;46.930;9.532;2023-04-19T07:43:04;20.50;40.80
56268;DHT22;42175;46.930;9.532;2023-04-19T07:45:31;20.60;40.80
56268;DHT22;42175;46.930;9.532;2023-04-19T07:47:56;20.70;40.60
56268;DHT22;42175;46.930;9.532;2023-04-19T07:50:24;20.80;41.20
56268;DHT22;42175;46.930;9.532;2023-04-19T07:52:51;20.80;40.50
56268;DHT22;42175;46.930;9.532;2023-04-19T07:55:17;20.80;40.30
56268;DHT22;42175;46.930;9.532;2023-04-19T07:57:42;20.90;40.40
56268;DHT22;42175;46.930;9.532;2023-04-19T08:00:13;20.90;40.50
56268;DHT22;42175;46.930;9.532;2023-04-19T08:02:42;20.90;40.40
56268;DHT22;42175;46.930;9.532;2023-04-19T08:05:09;21.00;40.60
56268;DHT22;42175;46.930;9.532;2023-04-19T08:07:34;21.10;40.50
56268;DHT22;42175;46.930;9.532;2023-04-19T08:10:00;21.10;40.50
56268;DHT22;42175;46.930;9.532;2023-04-19T08:12:26;21.10;40.60
56268;DHT22;42175;46.930;9.532;2023-04-19T08:14:52;21.20;40.70
56268;DHT22;42175;46.930;9.532;2023-04-19T08:17:17;21.20;40.70
56268;DHT22;42175;46.930;9.532;2023-04-19T08:19:46;21.30;40.90
56268;DHT22;42175;46.930;9.532;2023-04-19T08:22:14;21.30;40.90
56268;DHT22;42175;46.930;9.532;2023-04-19T08:24:41;21.30;40.80
56268;DHT22;42175;46.930;9.532;2023-04-19T08:27:08;21.40;40.90
56268;DHT22;42175;46.930;9.532;2023-04-19T08:29:33;21.40;40.80
56268;DHT22;42175;46.930;9.532;2023-04-19T08:31:59;21.40;41.00
56268;DHT22;42175;46.930;9.532;2023-04-19T08:34:26;21.40;41.00
56268;DHT22;42175;46.930;9.532;2023-04-19T08:36:53;21.50;41.00
56268;DHT22;42175;46.930;9.532;2023-04-19T08:39:18;21.50;41.00
56268;DHT22;42175;46.930;9.532;2023-04-19T08:41:44;21.50;41.10
56268;DHT22;42175;46.930;9.532;2023-04-19T08:44:11;21.50;41.10
56268;DHT22;42175;46.930;9.532;2023-04-19T08:46:37;21.50;41.00
56268;DHT22;42175;46.930;9.532;2023-04-19T08:49:04;21.60;41.20
56268;DHT22;42175;46.930;9.532;2023-04-19T08:51:31;21.60;41.10
56268;DHT22;42175;46.930;9.532;2023-04-19T08:53:58;21.60;41.00
56268;DHT22;42175;46.930;9.532;2023-04-19T08:56:24;21.60;41.00
56268;DHT22;42175;46.930;9.532;2023-04-19T08:58:51;21.60;41.10
56268;DHT22;42175;46.930;9.532;2023-04-19T09:01:16;21.60;41.00
56268;DHT22;42175;46.930;9.532;2023-04-19T09:03:43;21.60;41.00
56268;DHT22;42175;46.930;9.532;2023-04-19T09:06:11;21.60;41.00
56268;DHT22;42175;46.930;9.532;2023-04-19T09:08:40;21.60;41.30
56268;DHT22;42175;46.930;9.532;2023-04-19T09:11:06;21.70;41.20
56268;DHT22;42175;46.930;9.532;2023-04-19T09:13:32;21.70;41.10
56268;DHT22;42175;46.930;9.532;2023-04-19T09:15:58;21.70;41.20
56268;DHT22;42175;46.930;9.532;2023-04-19T09:18:25;21.70;41.70
56268;DHT22;42175;46.930;9.532;2023-04-19T09:20:52;21.70;41.20
56268;DHT22;42175;46.930;9.532;2023-04-19T09:23:26;21.70;41.10
56268;DHT22;42175;46.930;9.532;2023-04-19T09:25:55;21.80;41.30
56268;DHT22;42175;46.930;9.532;2023-04-19T09:28:23;21.80;41.10
56268;DHT22;42175;46.930;9.532;2023-04-19T09:30:49;21.80;41.10
56268;DHT22;42175;46.930;9.532;2023-04-19T09:33:35;21.80;41.20
56268;DHT22;42175;46.930;9.532;2023-04-19T09:38:47;21.80;41.00
56268;DHT22;42175;46.930;9.532;2023-04-19T09:41:13;21.80;41.00
56268;DHT22;42175;46.930;9.532;2023-04-19T09:43:39;21.90;41.20
56268;DHT22;42175;46.930;9.532;2023-04-19T09:46:04;21.90;41.10
56268;DHT22;42175;46.930;9.532;2023-04-19T09:48:30;21.90;41.00
56268;DHT22;42175;46.930;9.532;2023-04-19T09:53:24;22.00;41.20
56268;DHT22;42175;46.930;9.532;2023-04-19T09:55:50;22.00;41.20
56268;DHT22;42175;46.930;9.532;2023-04-19T09:58:17;22.00;41.30
56268;DHT22;42175;46.930;9.532;2023-04-19T10:00:44;22.00;41.20
56268;DHT22;42175;46.930;9.532;2023-04-19T10:03:15;22.00;41.10
56268;DHT22;42175;46.930;9.532;2023-04-19T10:05:42;22.10;41.80
56268;DHT22;42175;46.930;9.532;2023-04-19T10:08:09;22.00;41.10
56268;DHT22;42175;46.930;9.532;2023-04-19T10:10:36;22.00;41.00
56268;DHT22;42175;46.930;9.532;2023-04-19T10:13:06;22.10;41.10
56268;DHT22;42175;46.930;9.532;2023-04-19T10:15:35;22.10;41.00
56268;DHT22;42175;46.930;9.532;2023-04-19T10:18:03;22.10;41.00
56268;DHT22;42175;46.930;9.532;2023-04-19T10:23:14;22.10;41.00
56268;DHT22;42175;46.930;9.532;2023-04-19T10:25:45;22.20;41.00
56268;DHT22;42175;46.930;9.532;2023-04-19T10:28:12;22.20;41.10
56268;DHT22;42175;46.930;9.532;2023-04-19T10:30:54;22.20;41.20
56268;DHT22;42175;46.930;9.532;2023-04-19T10:33:25;22.10;41.00
56268;DHT22;42175;46.930;9.532;2023-04-19T10:35:55;22.20;41.10
56268;DHT22;42175;46.930;9.532;2023-04-19T10:38:35;22.10;41.10
56268;DHT22;42175;46.930;9.532;2023-04-19T10:41:02;22.10;41.10
56268;DHT22;42175;46.930;9.532;2023-04-19T10:43:30;22.10;41.00
56268;DHT22;42175;46.930;9.532;2023-04-19T10:46:00;22.20;41.00
56268;DHT22;42175;46.930;9.532;2023-04-19T10:51:02;22.20;41.10
56268;DHT22;42175;46.930;9.532;2023-04-19T11:01:47;22.20;41.10
56268;DHT22;42175;46.930;9.532;2023-04-19T11:07:03;22.20;41.00
56268;DHT22;42175;46.930;9.532;2023-04-19T11:09:42;22.20;41.00
56268;DHT22;42175;46.930;9.532;2023-04-19T11:12:15;22.20;40.90
56268;DHT22;42175;46.930;9.532;2023-04-19T11:20:03;22.20;40.90
56268;DHT22;42175;46.930;9.532;2023-04-19T11:22:35;22.20;40.90
56268;DHT22;42175;46.930;9.532;2023-04-19T11:25:27;22.30;40.90
56268;DHT22;42175;46.930;9.532;2023-04-19T11:27:55;22.20;40.90
56268;DHT22;42175;46.930;9.532;2023-04-19T11:30:28;22.20;40.90
56268;DHT22;42175;46.930;9.532;2023-04-19T11:32:55;22.20;40.90
56268;DHT22;42175;46.930;9.532;2023-04-19T11:35:23;22.20;40.90
56268;DHT22;42175;46.930;9.532;2023-04-19T11:37:50;22.30;40.90
56268;DHT22;42175;46.930;9.532;2023-04-19T11:40:18;22.30;40.90
56268;DHT22;42175;46.930;9.532;2023-04-19T11:42:44;22.30;40.80
56268;DHT22;42175;46.930;9.532;2023-04-19T11:45:11;22.30;40.80
56268;DHT22;42175;46.930;9.532;2023-04-19T11:47:47;22.30;41.00
56268;DHT22;42175;46.930;9.532;2023-04-19T11:50:36;22.20;39.40
56268;DHT22;42175;46.930;9.532;2023-04-19T11:55:35;22.00;38.90
56268;DHT22;42175;46.930;9.532;2023-04-19T11:58:01;21.90;38.70
56268;DHT22;42175;46.930;9.532;2023-04-19T12:00:27;21.80;38.10
56268;DHT22;42175;46.930;9.532;2023-04-19T12:02:53;21.80;37.50
56268;DHT22;42175;46.930;9.532;2023-04-19T12:05:19;21.80;38.40
56268;DHT22;42175;46.930;9.532;2023-04-19T12:10:27;21.70;37.40
56268;DHT22;42175;46.930;9.532;2023-04-19T12:12:52;21.60;36.80
56268;DHT22;42175;46.930;9.532;2023-04-19T12:15:18;21.70;37.00
56268;DHT22;42175;46.930;9.532;2023-04-19T12:17:59;21.60;36.70
56268;DHT22;42175;46.930;9.532;2023-04-19T12:20:37;21.70;36.20
56268;DHT22;42175;46.930;9.532;2023-04-19T12:23:03;21.50;36.30
56268;DHT22;42175;46.930;9.532;2023-04-19T12:25:29;21.50;37.10
56268;DHT22;42175;46.930;9.532;2023-04-19T12:27:56;21.50;36.80
56268;DHT22;42175;46.930;9.532;2023-04-19T12:30:23;21.60;37.20
56268;DHT22;42175;46.930;9.532;2023-04-19T12:32:49;21.70;38.10
56268;DHT22;42175;46.930;9.532;2023-04-19T12:35:16;21.80;38.30
56268;DHT22;42175;46.930;9.532;2023-04-19T12:37:42;21.90;38.30
56268;DHT22;42175;46.930;9.532;2023-04-19T12:40:08;22.00;38.50
56268;DHT22;42175;46.930;9.532;2023-04-19T12:42:34;22.10;38.70
56268;DHT22;42175;46.930;9.532;2023-04-19T12:45:00;22.00;38.80
56268;DHT22;42175;46.930;9.532;2023-04-19T12:47:26;22.10;39.00
56268;DHT22;42175;46.930;9.532;2023-04-19T12:49:51;22.10;39.20
56268;DHT22;42175;46.930;9.532;2023-04-19T12:52:18;22.10;39.20
56268;DHT22;42175;46.930;9.532;2023-04-19T12:54:44;22.10;39.20
56268;DHT22;42175;46.930;9.532;2023-04-19T12:57:09;22.10;39.20
56268;DHT22;42175;46.930;9.532;2023-04-19T12:59:35;22.20;39.40
56268;DHT22;42175;46.930;9.532;2023-04-19T13:02:01;22.20;39.50
56268;DHT22;42175;46.930;9.532;2023-04-19T13:04:26;22.20;39.40
56268;DHT22;42175;46.930;9.532;2023-04-19T13:06:52;22.20;39.50
56268;DHT22;42175;46.930;9.532;2023-04-19T13:09:17;22.10;39.50
56268;DHT22;42175;46.930;9.532;2023-04-19T13:11:43;22.10;39.50
56268;DHT22;42175;46.930;9.532;2023-04-19T13:14:09;22.20;39.70
56268;DHT22;42175;46.930;9.532;2023-04-19T13:16:34;22.20;39.70
56268;DHT22;42175;46.930;9.532;2023-04-19T13:19:00;22.20;39.70
56268;DHT22;42175;46.930;9.532;2023-04-19T13:21:26;22.10;39.60
56268;DHT22;42175;46.930;9.532;2023-04-19T13:23:52;22.20;39.70
56268;DHT22;42175;46.930;9.532;2023-04-19T13:26:18;22.20;39.70
56268;DHT22;42175;46.930;9.532;2023-04-19T13:28:43;22.20;39.70
56268;DHT22;42175;46.930;9.532;2023-04-19T13:31:10;22.20;39.70
56268;DHT22;42175;46.930;9.532;2023-04-19T13:33:35;22.20;39.70
56268;DHT22;42175;46.930;9.532;2023-04-19T13:36:01;22.20;39.60
56268;DHT22;42175;46.930;9.532;2023-04-19T13:38:27;22.20;39.80
56268;DHT22;42175;46.930;9.532;2023-04-19T13:40:53;22.30;39.80
56268;DHT22;42175;46.930;9.532;2023-04-19T13:43:18;22.30;39.80
56268;DHT22;42175;46.930;9.532;2023-04-19T13:45:44;22.20;39.80
56268;DHT22;42175;46.930;9.532;2023-04-19T13:48:10;22.30;39.90
56268;DHT22;42175;46.930;9.532;2023-04-19T13:50:36;22.30;39.90
56268;DHT22;42175;46.930;9.532;2023-04-19T13:53:01;22.30;39.80
56268;DHT22;42175;46.930;9.532;2023-04-19T13:55:27;22.30;39.80
56268;DHT22;42175;46.930;9.532;2023-04-19T13:57:52;22.30;39.90
56268;DHT22;42175;46.930;9.532;2023-04-19T14:00:19;22.30;39.80
56268;DHT22;42175;46.930;9.532;2023-04-19T14:02:45;22.30;39.70
56268;DHT22;42175;46.930;9.532;2023-04-19T14:05:11;22.40;39.70
56268;DHT22;42175;46.930;9.532;2023-04-19T14:07:39;22.40;39.70
56268;DHT22;42175;46.930;9.532;2023-04-19T14:10:06;22.40;39.70
56268;DHT22;42175;46.930;9.532;2023-04-19T14:12:32;22.40;39.70
56268;DHT22;42175;46.930;9.532;2023-04-19T14:14:58;22.40;39.70
56268;DHT22;42175;46.930;9.532;2023-04-19T14:17:23;22.40;39.70
56268;DHT22;42175;46.930;9.532;2023-04-19T14:19:49;22.40;39.70
56268;DHT22;42175;46.930;9.532;2023-04-19T14:22:15;22.40;39.80
56268;DHT22;42175;46.930;9.532;2023-04-19T14:24:41;22.40;39.80
56268;DHT22;42175;46.930;9.532;2023-04-19T14:27:07;22.40;39.80
56268;DHT22;42175;46.930;9.532;2023-04-19T14:29:33;22.40;39.80
56268;DHT22;42175;46.930;9.532;2023-04-19T14:31:59;22.40;39.70
56268;DHT22;42175;46.930;9.532;2023-04-19T14:34:26;22.40;39.60
56268;DHT22;42175;46.930;9.532;2023-04-19T14:36:52;22.50;39.70
56268;DHT22;42175;46.930;9.532;2023-04-19T14:39:18;22.50;39.70
56268;DHT22;42175;46.930;9.532;2023-04-19T14:41:43;22.50;39.70
56268;DHT22;42175;46.930;9.532;2023-04-19T14:44:09;22.50;39.70
56268;DHT22;42175;46.930;9.532;2023-04-19T14:46:35;22.50;39.60
56268;DHT22;42175;46.930;9.532;2023-04-19T14:49:00;22.50;39.60
56268;DHT22;42175;46.930;9.532;2023-04-19T14:51:33;22.50;39.60
56268;DHT22;42175;46.930;9.532;2023-04-19T14:53:59;22.50;39.50
56268;DHT22;42175;46.930;9.532;2023-04-19T14:56:25;22.60;39.50
56268;DHT22;42175;46.930;9.532;2023-04-19T14:58:53;22.60;39.60
56268;DHT22;42175;46.930;9.532;2023-04-19T15:01:19;22.60;39.60
56268;DHT22;42175;46.930;9.532;2023-04-19T15:03:48;22.60;39.60
56268;DHT22;42175;46.930;9.532;2023-04-19T15:06:14;22.60;39.70
56268;DHT22;42175;46.930;9.532;2023-04-19T15:08:40;22.60;39.70
56268;DHT22;42175;46.930;9.532;2023-04-19T15:11:08;22.60;39.60
56268;DHT22;42175;46.930;9.532;2023-04-19T15:13:34;22.60;39.60
56268;DHT22;42175;46.930;9.532;2023-04-19T15:16:00;22.60;39.60
56268;DHT22;42175;46.930;9.532;2023-04-19T15:18:29;22.60;39.60
56268;DHT22;42175;46.930;9.532;2023-04-19T15:20:55;22.60;39.60
56268;DHT22;42175;46.930;9.532;2023-04-19T15:23:23;22.60;39.60
56268;DHT22;42175;46.930;9.532;2023-04-19T15:25:49;22.60;39.60
56268;DHT22;42175;46.930;9.532;2023-04-19T15:28:15;22.60;39.60
56268;DHT22;42175;46.930;9.532;2023-04-19T15:30:41;22.60;39.60
56268;DHT22;42175;46.930;9.532;2023-04-19T15:33:06;22.60;39.60
56268;DHT22;42175;46.930;9.532;2023-04-19T15:35:33;22.60;39.60
56268;DHT22;42175;46.930;9.532;2023-04-19T15:37:59;22.60;39.50
56268;DHT22;42175;46.930;9.532;2023-04-19T15:40:25;22.60;39.70
56268;DHT22;42175;46.930;9.532;2023-04-19T15:42:52;22.60;39.60
56268;DHT22;42175;46.930;9.532;2023-04-19T15:45:20;22.60;39.50
56268;DHT22;42175;46.930;9.532;2023-04-19T15:47:46;22.60;39.50
56268;DHT22;42175;46.930;9.532;2023-04-19T15:50:12;22.60;39.50
56268;DHT22;42175;46.930;9.532;2023-04-19T15:52:38;22.60;39.50
56268;DHT22;42175;46.930;9.532;2023-04-19T15:55:04;22.60;39.60
56268;DHT22;42175;46.930;9.532;2023-04-19T15:57:30;22.60;39.60